createdAt,value
2018-02-17T00:00:10.679Z,10.10
2018-02-17T00:02:38.949Z,11.33
2018-02-17T00:05:06.888Z,11.07
2018-02-17T00:07:34.858Z,9.83
2018-02-17T00:10:02.396Z,10.30
2018-02-17T00:12:30.306Z,11.63
2018-02-17T00:14:57.858Z,11.13
2018-02-17T00:17:25.774Z,10.43
2018-02-17T00:19:53.674Z,9.63
2018-02-17T00:22:21.591Z,9.53
2018-02-17T00:24:49.087Z,9.77
2018-02-17T00:27:17.008Z,11.03
2018-02-17T00:29:44.519Z,10.83
2018-02-17T00:32:12.212Z,11.77
2018-02-17T00:34:39.725Z,11.17
2018-02-17T00:37:07.303Z,10.27
2018-02-17T00:39:35.220Z,10.57
2018-02-17T00:42:02.872Z,10.60
2018-02-17T00:44:30.390Z,11.77
2018-02-17T00:46:57.922Z,9.27
2018-02-17T00:49:25.440Z,10.53
2018-02-17T00:51:52.966Z,8.93
2018-02-17T00:54:20.867Z,9.73
2018-02-17T00:56:49.158Z,11.50
2018-02-17T00:59:17.046Z,9.90
2018-02-17T01:01:44.967Z,14.03
2018-02-17T01:04:12.870Z,11.13
2018-02-17T01:06:40.480Z,11.83
2018-02-17T01:09:08.378Z,13.20
2018-02-17T01:11:35.912Z,11.57
2018-02-17T01:14:04.250Z,11.23
2018-02-17T01:16:31.762Z,11.43
2018-02-17T01:18:59.688Z,11.17
2018-02-17T01:21:27.680Z,13.13
2018-02-17T01:23:55.624Z,11.70
2018-02-17T01:26:23.522Z,11.80
2018-02-17T01:28:51.050Z,10.90
2018-02-17T01:31:18.714Z,14.30
2018-02-17T01:33:46.251Z,11.13
2018-02-17T01:36:14.165Z,11.93
2018-02-17T01:38:42.092Z,11.93
2018-02-17T01:41:09.605Z,10.67
2018-02-17T01:43:37.511Z,11.13
2018-02-17T01:46:05.437Z,11.13
2018-02-17T01:48:32.970Z,11.63
2018-02-17T01:51:00.539Z,12.73
2018-02-17T01:53:28.051Z,10.77
2018-02-17T01:55:55.586Z,12.27
2018-02-17T01:58:23.488Z,9.20
2018-02-17T02:00:51.412Z,11.23
2018-02-17T02:03:19.685Z,11.67
2018-02-17T02:05:47.215Z,12.70
2018-02-17T02:08:14.843Z,11.60
2018-02-17T02:10:42.491Z,10.57
2018-02-17T02:13:10.150Z,13.00
2018-02-17T02:15:38.216Z,11.00
2018-02-17T02:18:05.747Z,11.13
2018-02-17T02:20:33.291Z,11.20
2018-02-17T02:23:00.795Z,14.07
2018-02-17T02:25:28.547Z,12.17
2018-02-17T02:27:56.450Z,10.23
2018-02-17T02:30:23.970Z,11.40
2018-02-17T02:32:51.479Z,11.53
2018-02-17T02:35:19.002Z,11.10
2018-02-17T02:37:46.548Z,11.33
2018-02-17T02:40:14.844Z,10.03
2018-02-17T02:42:42.420Z,9.93
2018-02-17T02:45:09.992Z,11.10
2018-02-17T02:47:38.629Z,8.93
2018-02-17T02:50:06.545Z,9.47
2018-02-17T02:52:34.454Z,10.30
2018-02-17T02:55:01.971Z,9.17
2018-02-17T02:57:29.502Z,12.10
2018-02-17T02:59:57.394Z,9.67
2018-02-17T03:02:25.331Z,8.83
2018-02-17T03:04:52.841Z,11.10
2018-02-17T03:07:21.304Z,9.93
2018-02-17T03:09:48.820Z,10.37
2018-02-17T03:12:17.151Z,10.43
2018-02-17T03:14:45.523Z,11.17
2018-02-17T03:17:13.046Z,9.63
2018-02-17T03:19:40.950Z,8.00
2018-02-17T03:22:09.740Z,10.80
2018-02-17T03:24:37.248Z,9.40
2018-02-17T03:27:05.246Z,10.83
2018-02-17T03:29:32.745Z,9.93
2018-02-17T03:32:00.661Z,8.87
2018-02-17T03:34:28.225Z,11.33
2018-02-17T03:36:55.746Z,9.37
2018-02-17T03:39:23.735Z,12.50
2018-02-17T03:41:51.667Z,9.07
2018-02-17T03:44:19.179Z,10.00
2018-02-17T03:46:46.698Z,8.80
2018-02-17T03:49:14.979Z,10.27
2018-02-17T03:51:42.519Z,9.30
2018-02-17T03:54:10.422Z,9.27
2018-02-17T03:59:59.470Z,9.30
2018-02-17T04:02:26.994Z,9.37
2018-02-17T04:04:54.502Z,9.93
2018-02-17T04:07:22.455Z,10.53
2018-02-17T04:09:49.970Z,10.33
2018-02-17T04:12:17.898Z,8.53
2018-02-17T04:14:45.419Z,10.27
2018-02-17T04:17:13.350Z,8.40
2018-02-17T04:19:40.969Z,8.03
2018-02-17T04:22:08.475Z,6.70
2018-02-17T04:24:36.394Z,7.70
2018-02-17T04:27:03.914Z,6.77
2018-02-17T04:29:31.826Z,6.73
2018-02-17T04:31:59.732Z,8.70
2018-02-17T04:34:27.654Z,9.20
2018-02-17T04:36:55.159Z,9.47
2018-02-17T04:39:22.714Z,8.77
2018-02-17T04:41:52.474Z,7.30
2018-02-17T04:44:25.996Z,8.27
2018-02-17T04:47:13.619Z,7.63
2018-02-17T04:49:46.963Z,7.90
2018-02-17T04:52:25.150Z,9.80
2018-02-17T04:54:58.307Z,9.43
2018-02-17T05:00:59.041Z,10.37
2018-02-17T05:03:38.259Z,9.33
2018-02-17T05:06:10.363Z,12.73
2018-02-17T05:08:41.927Z,9.23
2018-02-17T05:11:09.487Z,9.23
2018-02-17T05:13:37.383Z,9.43
2018-02-17T05:16:07.691Z,8.47
2018-02-17T05:18:41.161Z,8.20
2018-02-17T05:21:23.606Z,7.83
2018-02-17T05:23:56.789Z,8.43
2018-02-17T05:26:26.791Z,8.50
2018-02-17T05:28:57.844Z,8.10
2018-02-17T05:31:26.275Z,9.77
2018-02-17T05:34:00.250Z,7.37
2018-02-17T05:36:28.181Z,9.77
2018-02-17T05:38:56.074Z,5.83
2018-02-17T05:41:24.086Z,8.70
2018-02-17T05:43:52.022Z,7.43
2018-02-17T05:46:22.883Z,8.70
2018-02-17T05:48:50.783Z,7.37
2018-02-17T05:51:18.335Z,8.50
2018-02-17T05:53:46.617Z,7.43
2018-02-17T05:56:14.217Z,6.60
2018-02-17T05:58:41.717Z,8.13
2018-02-17T06:01:09.231Z,10.37
2018-02-17T06:03:37.159Z,7.33
2018-02-17T06:27:48.783Z,7.60
2018-02-17T06:30:16.291Z,7.10
2018-02-17T06:32:43.827Z,6.60
2018-02-17T06:35:12.124Z,6.17
2018-02-17T06:37:39.635Z,8.37
2018-02-17T06:40:07.163Z,7.80
2018-02-17T06:42:34.675Z,8.93
2018-02-17T06:45:03.636Z,6.23
2018-02-17T06:47:31.156Z,6.33
2018-02-17T06:49:58.686Z,6.23
2018-02-17T06:52:26.195Z,7.77
2018-02-17T06:54:54.130Z,7.70
2018-02-17T06:57:22.402Z,7.30
2018-02-17T06:59:49.928Z,9.20
2018-02-17T07:02:17.828Z,6.97
2018-02-17T07:04:45.358Z,8.83
2018-02-17T07:07:12.872Z,7.87
2018-02-17T07:09:40.451Z,8.70
2018-02-17T07:12:09.433Z,7.40
2018-02-17T07:14:42.325Z,8.17
2018-02-17T07:17:10.295Z,7.87
2018-02-17T07:19:37.831Z,7.43
2018-02-17T07:22:05.743Z,7.57
2018-02-17T07:24:33.257Z,8.13
2018-02-17T07:27:01.556Z,8.13
2018-02-17T07:29:29.067Z,6.57
2018-02-17T07:31:56.606Z,7.40
2018-02-17T07:34:24.497Z,8.23
2018-02-17T07:36:52.027Z,8.53
2018-02-17T07:39:19.591Z,9.17
2018-02-17T07:41:47.505Z,9.60
2018-02-17T07:44:15.014Z,7.43
2018-02-17T07:46:42.605Z,8.03
2018-02-17T07:49:10.157Z,8.37
2018-02-17T07:51:37.855Z,8.27
2018-02-17T07:54:05.328Z,9.50
2018-02-17T07:56:33.227Z,8.37
2018-02-17T07:59:00.750Z,8.20
2018-02-17T08:01:28.266Z,7.23
2018-02-17T08:03:56.566Z,7.57
2018-02-17T08:06:24.454Z,8.23
2018-02-17T08:08:52.378Z,8.83
2018-02-17T08:11:19.879Z,8.43
2018-02-17T08:13:47.440Z,9.30
2018-02-17T08:16:15.470Z,7.53
2018-02-17T08:18:43.385Z,8.93
2018-02-17T08:21:11.747Z,8.80
2018-02-17T08:23:39.773Z,8.90
2018-02-17T08:26:07.508Z,9.10
2018-02-17T08:28:35.905Z,8.20
2018-02-17T08:31:03.803Z,7.80
2018-02-17T08:33:31.330Z,7.37
2018-02-17T08:35:58.855Z,7.97
2018-02-17T08:38:26.412Z,8.57
2018-02-17T08:40:54.044Z,7.57
2018-02-17T08:43:21.966Z,6.53
2018-02-17T08:45:49.883Z,7.43
2018-02-17T08:48:17.437Z,6.67
2018-02-17T08:50:45.343Z,7.57
2018-02-17T08:53:12.866Z,5.13
2018-02-17T08:55:41.657Z,7.70
2018-02-17T08:58:09.215Z,6.07
2018-02-17T09:00:36.737Z,4.40
2018-02-17T09:03:04.262Z,5.17
2018-02-17T09:05:32.159Z,5.50
2018-02-17T09:08:00.093Z,5.53
2018-02-17T09:10:39.462Z,6.07
2018-02-17T09:13:07.400Z,5.20
2018-02-17T09:15:35.308Z,7.13
2018-02-17T09:18:02.804Z,5.47
2018-02-17T09:20:30.727Z,4.43
2018-02-17T09:22:58.231Z,5.10
2018-02-17T09:25:26.158Z,4.97
2018-02-17T09:27:54.094Z,5.00
2018-02-17T09:30:23.004Z,5.03
2018-02-17T09:32:50.895Z,5.57
2018-02-17T09:35:18.542Z,4.83
2018-02-17T10:10:47.498Z,4.67
2018-02-17T10:13:15.404Z,4.13
2018-02-17T10:15:42.927Z,4.50
2018-02-17T10:18:10.827Z,4.23
2018-02-17T10:20:38.755Z,3.43
2018-02-17T10:23:07.398Z,4.47
2018-02-17T10:25:34.938Z,4.53
2018-02-17T10:28:02.446Z,4.13
2018-02-17T10:30:30.366Z,4.87
2018-02-17T10:32:58.266Z,6.13
2018-02-17T10:35:25.853Z,5.07
2018-02-17T10:37:53.758Z,6.07
2018-02-17T10:40:21.282Z,4.97
2018-02-17T10:42:48.828Z,5.53
2018-02-17T10:45:16.506Z,4.87
2018-02-17T10:47:44.413Z,5.70
2018-02-17T10:50:11.919Z,5.47
2018-02-17T10:52:39.840Z,5.70
2018-02-17T10:55:08.491Z,5.33
2018-02-17T10:57:36.026Z,5.67
2018-02-17T11:00:03.532Z,6.07
2018-02-17T11:02:31.456Z,5.93
2018-02-17T11:04:59.362Z,5.60
2018-02-17T11:07:27.293Z,5.63
2018-02-17T11:09:55.258Z,5.53
2018-02-17T11:12:22.791Z,6.43
2018-02-17T11:14:50.692Z,6.07
2018-02-17T11:17:18.613Z,5.37
2018-02-17T11:19:46.524Z,6.10
2018-02-17T11:22:14.045Z,6.63
2018-02-17T11:24:41.551Z,7.70
2018-02-17T11:27:09.079Z,7.63
2018-02-17T11:29:36.591Z,6.57
2018-02-17T11:32:04.134Z,7.63
2018-02-17T11:34:32.031Z,6.63
2018-02-17T11:36:59.955Z,6.77
2018-02-17T11:39:27.862Z,7.30
2018-02-17T11:41:55.402Z,7.33
2018-02-17T11:44:23.326Z,6.47
2018-02-17T11:46:51.223Z,6.53
2018-02-17T11:49:18.851Z,8.50
2018-02-17T11:51:46.355Z,6.30
2018-02-17T11:54:13.881Z,7.87
2018-02-17T11:56:41.771Z,8.20
2018-02-17T11:59:09.294Z,7.90
2018-02-17T12:01:37.195Z,6.97
2018-02-17T12:04:05.644Z,7.17
2018-02-17T12:06:33.586Z,8.70
2018-02-17T12:09:01.407Z,7.00
2018-02-17T12:11:28.927Z,7.97
2018-02-17T12:13:56.472Z,9.60
2018-02-17T12:16:24.123Z,8.70
2018-02-17T12:18:52.051Z,8.07
2018-02-17T12:21:20.258Z,9.20
2018-02-17T12:23:47.782Z,10.17
2018-02-17T12:26:16.059Z,10.60
2018-02-17T12:28:43.995Z,10.33
2018-02-17T12:31:11.495Z,9.83
2018-02-17T12:33:39.009Z,10.97
2018-02-17T12:36:06.620Z,10.40
2018-02-17T12:38:34.135Z,9.43
2018-02-17T12:41:02.451Z,10.83
2018-02-17T12:43:30.382Z,9.50
2018-02-17T12:45:58.291Z,9.90
2018-02-17T12:48:25.816Z,9.53
2018-02-17T12:50:53.341Z,10.27
2018-02-17T12:53:20.835Z,10.50
2018-02-17T12:55:48.355Z,9.93
2018-02-17T12:58:15.854Z,9.03
2018-02-17T13:00:43.376Z,10.10
2018-02-17T13:03:11.019Z,7.57
2018-02-17T13:05:38.591Z,7.83
2018-02-17T13:08:06.866Z,8.53
2018-02-17T13:10:35.150Z,8.20
2018-02-17T13:13:02.674Z,7.23
2018-02-17T13:15:30.195Z,6.00
2018-02-17T13:17:57.714Z,7.27
2018-02-17T13:20:25.236Z,8.97
2018-02-17T13:22:53.143Z,8.60
2018-02-17T13:25:20.655Z,8.47
2018-02-17T13:27:48.568Z,9.63
2018-02-17T13:30:16.133Z,9.37
2018-02-17T13:32:43.635Z,9.77
2018-02-17T13:35:11.904Z,9.53
2018-02-17T13:37:40.204Z,14.23
2018-02-17T13:40:08.113Z,12.07
2018-02-17T13:42:35.668Z,10.20
2018-02-17T13:45:03.190Z,10.17
2018-02-17T13:47:31.098Z,8.47
2018-02-17T13:49:58.613Z,4.93
2018-02-17T13:52:26.703Z,8.03
2018-02-17T13:54:54.360Z,6.60
2018-02-17T13:57:22.417Z,7.03
2018-02-17T13:59:50.487Z,6.50
2018-02-17T14:02:18.410Z,6.47
2018-02-17T14:04:45.913Z,6.73
2018-02-17T14:07:13.446Z,6.13
2018-02-17T14:09:41.614Z,5.43
2018-02-17T14:12:19.343Z,5.47
2018-02-17T14:14:48.563Z,6.50
2018-02-17T14:17:19.073Z,4.30
2018-02-17T14:19:46.583Z,4.47
2018-02-17T14:22:14.488Z,4.00
2018-02-17T14:24:42.025Z,5.60
2018-02-17T14:27:10.295Z,6.07
2018-02-17T14:29:37.835Z,5.40
2018-02-17T14:32:05.728Z,10.33
2018-02-17T14:34:33.300Z,6.97
2018-02-17T14:37:01.267Z,10.27
2018-02-17T14:39:28.794Z,4.17
2018-02-17T14:41:56.712Z,4.00
2018-02-17T14:44:24.633Z,4.73
2018-02-17T14:46:52.139Z,3.73
2018-02-17T14:49:19.666Z,35.03
2018-02-17T14:51:47.172Z,43.27
2018-02-17T14:54:14.762Z,4.10
2018-02-17T14:56:42.283Z,6.17
2018-02-17T14:59:10.587Z,4.20
2018-02-17T15:01:38.079Z,3.50
2018-02-17T15:04:05.579Z,4.80
2018-02-17T15:06:33.280Z,4.03
2018-02-17T15:09:01.318Z,3.30
2018-02-17T15:11:28.916Z,4.10
2018-02-17T15:13:56.424Z,4.00
2018-02-17T15:16:23.951Z,4.33
2018-02-17T15:18:51.862Z,3.70
2018-02-17T15:21:19.412Z,4.30
2018-02-17T15:23:46.974Z,4.07
2018-02-17T15:26:14.494Z,3.93
2018-02-17T15:28:41.994Z,3.63
2018-02-17T15:31:09.924Z,3.50
2018-02-17T15:33:37.435Z,4.43
2018-02-17T15:36:05.013Z,4.53
2018-02-17T15:38:32.479Z,4.20
2018-02-17T15:41:00.027Z,4.27
2018-02-17T15:43:27.926Z,4.23
2018-02-17T15:45:55.462Z,6.73
2018-02-17T15:48:22.974Z,5.13
2018-02-17T15:50:50.891Z,6.27
2018-02-17T15:53:18.781Z,6.23
2018-02-17T15:55:47.091Z,5.20
2018-02-17T15:58:14.999Z,6.17
2018-02-17T16:00:42.890Z,5.13
2018-02-17T16:03:11.932Z,8.87
2018-02-17T16:05:39.907Z,5.47
2018-02-17T16:08:07.834Z,7.70
2018-02-17T16:10:35.326Z,5.27
2018-02-17T16:13:02.857Z,6.53
2018-02-17T16:15:30.383Z,6.53
2018-02-17T16:17:57.937Z,5.80
2018-02-17T16:20:25.468Z,6.23
2018-02-17T16:22:53.406Z,5.60
2018-02-17T16:25:21.303Z,5.87
2018-02-17T16:27:49.271Z,5.47
2018-02-17T16:30:17.179Z,7.83
2018-02-17T16:32:45.158Z,4.53
2018-02-17T16:35:13.076Z,3.60
2018-02-17T16:37:40.710Z,4.10
2018-02-17T16:40:08.600Z,3.73
2018-02-17T16:42:36.166Z,5.80
2018-02-17T16:45:04.076Z,3.60
2018-02-17T16:47:31.585Z,4.87
2018-02-17T16:49:59.217Z,3.73
2018-02-17T16:52:26.718Z,3.20
2018-02-17T16:54:54.624Z,4.80
2018-02-17T16:57:22.516Z,4.87
2018-02-17T16:59:50.035Z,4.80
2018-02-17T17:02:17.566Z,4.80
2018-02-17T17:04:45.120Z,6.40
2018-02-17T17:07:12.625Z,6.80
2018-02-17T17:09:40.544Z,7.73
2018-02-17T17:12:08.056Z,6.03
2018-02-17T17:14:35.974Z,5.90
2018-02-17T17:17:03.882Z,6.80
2018-02-17T17:19:31.813Z,7.57
2018-02-17T17:21:59.317Z,6.17
2018-02-17T17:24:26.852Z,7.20
2018-02-17T17:26:54.355Z,7.77
2018-02-17T17:29:22.308Z,6.97
2018-02-17T17:31:49.817Z,8.03
2018-02-17T17:34:17.323Z,9.20
2018-02-17T17:36:44.855Z,9.50
2018-02-17T17:39:12.398Z,10.27
2018-02-17T17:41:39.924Z,9.97
2018-02-17T17:44:07.820Z,8.77
2018-02-17T17:46:35.356Z,9.57
2018-02-17T17:49:02.855Z,9.10
2018-02-17T17:51:30.383Z,8.80
2018-02-17T17:53:59.033Z,10.00
2018-02-17T17:56:26.563Z,6.90
2018-02-17T17:58:55.583Z,8.63
2018-02-17T18:01:23.524Z,10.73
2018-02-17T18:03:51.040Z,8.90
2018-02-17T18:06:18.674Z,8.63
2018-02-17T18:08:46.195Z,9.57
2018-02-17T18:11:13.718Z,9.07
2018-02-17T18:13:41.635Z,8.00
2018-02-17T18:16:09.555Z,7.83
2018-02-17T18:18:37.059Z,12.67
2018-02-17T18:21:04.616Z,11.70
2018-02-17T18:23:32.139Z,12.77
2018-02-17T18:26:00.071Z,10.57
2018-02-17T18:28:27.599Z,9.03
2018-02-17T18:30:55.504Z,9.73
2018-02-17T18:33:23.024Z,7.33
2018-02-17T18:35:50.543Z,14.27
2018-02-17T18:38:18.075Z,8.97
2018-02-17T18:40:45.587Z,12.40
2018-02-17T18:43:13.506Z,12.50
2018-02-17T18:45:41.024Z,9.03
2018-02-17T18:48:08.684Z,8.97
2018-02-17T18:50:36.595Z,10.17
2018-02-17T18:53:04.519Z,7.90
2018-02-17T18:55:32.056Z,10.60
2018-02-17T18:58:00.012Z,8.80
2018-02-17T19:00:28.287Z,9.47
2018-02-17T19:02:55.815Z,8.57
2018-02-17T19:05:23.758Z,6.90
2018-02-17T19:07:51.692Z,9.20
2018-02-17T19:10:19.598Z,9.57
2018-02-17T19:12:47.524Z,7.70
2018-02-17T19:15:15.027Z,9.90
2018-02-17T19:17:42.556Z,8.37
2018-02-17T19:20:10.479Z,9.47
2018-02-17T19:22:38.224Z,8.93
2018-02-17T19:25:05.725Z,10.50
2018-02-17T19:27:33.263Z,9.00
2018-02-17T19:30:00.764Z,9.63
2018-02-17T19:32:28.379Z,9.20
2018-02-17T19:34:55.976Z,9.77
2018-02-17T19:37:23.535Z,10.00
2018-02-17T19:39:51.047Z,9.27
2018-02-17T19:42:18.557Z,10.57
2018-02-17T19:44:46.514Z,10.33
2018-02-17T19:47:14.029Z,9.93
2018-02-17T19:49:42.319Z,9.97
2018-02-17T19:52:09.820Z,10.47
2018-02-17T19:54:37.357Z,10.50
2018-02-17T19:57:04.865Z,9.80
2018-02-17T19:59:32.394Z,12.27
2018-02-17T20:01:59.908Z,11.20
2018-02-17T20:04:27.442Z,11.30
2018-02-17T20:06:54.952Z,9.73
2018-02-17T20:09:22.483Z,11.80
2018-02-17T20:11:50.382Z,10.53
2018-02-17T20:14:18.319Z,10.03
2018-02-17T20:16:45.828Z,11.70
2018-02-17T20:19:13.395Z,10.87
2018-02-17T20:21:40.907Z,9.47
2018-02-17T20:24:08.436Z,9.93
2018-02-17T20:26:35.955Z,9.10
2018-02-17T20:29:04.627Z,8.77
2018-02-17T20:31:32.186Z,8.93
2018-02-17T20:34:00.087Z,8.43
2018-02-17T20:36:28.024Z,8.60
2018-02-17T20:38:55.537Z,8.37
2018-02-17T20:41:33.484Z,8.27
